createdAt,value
2019-02-21T00:01:35.342Z,77.23
2019-02-21T00:04:04.399Z,77.44
2019-02-21T00:06:32.950Z,77.58
2019-02-21T00:09:01.616Z,77.95
2019-02-21T00:11:30.259Z,78.42
2019-02-21T00:13:58.761Z,78.62
2019-02-21T00:16:27.674Z,78.85
2019-02-21T00:18:56.137Z,78.76
2019-02-21T00:21:24.688Z,78.97
2019-02-21T00:23:53.204Z,79.11
2019-02-21T00:26:21.859Z,79.12
2019-02-21T00:28:50.346Z,79.40
2019-02-21T00:31:18.949Z,79.37
2019-02-21T00:33:47.444Z,79.64
2019-02-21T00:36:16.050Z,79.63
2019-02-21T00:38:44.689Z,79.94
2019-02-21T00:41:13.209Z,81.04
2019-02-21T00:43:41.907Z,80.92
2019-02-21T00:46:10.519Z,80.43
2019-02-21T00:48:39.052Z,80.06
2019-02-21T00:51:07.553Z,80.05
2019-02-21T00:53:36.032Z,80.18
2019-02-21T00:56:04.557Z,80.24
2019-02-21T00:58:33.445Z,80.51
2019-02-21T01:01:01.927Z,80.59
2019-02-21T01:03:30.377Z,80.69
2019-02-21T01:05:58.949Z,80.91
2019-02-21T01:08:27.467Z,81.15
2019-02-21T01:10:55.948Z,81.51
2019-02-21T01:13:24.406Z,81.98
2019-02-21T01:15:52.880Z,82.14
2019-02-21T01:18:21.522Z,82.37
2019-02-21T01:20:49.978Z,82.38
2019-02-21T01:23:18.431Z,82.60
2019-02-21T01:25:46.903Z,82.98
2019-02-21T01:28:15.440Z,82.83
2019-02-21T01:30:44.002Z,83.07
2019-02-21T01:33:12.550Z,83.05
2019-02-21T01:35:41.044Z,83.41
2019-02-21T01:38:09.520Z,83.22
2019-02-21T01:40:38.145Z,83.59
2019-02-21T01:43:06.709Z,83.65
2019-02-21T01:45:35.380Z,83.77
2019-02-21T01:48:04.075Z,83.79
2019-02-21T01:50:32.631Z,84.19
2019-02-21T01:53:01.382Z,84.41
2019-02-21T01:55:29.860Z,84.68
2019-02-21T01:57:58.308Z,84.49
2019-02-21T02:00:27.066Z,84.61
2019-02-21T02:02:55.614Z,84.64
2019-02-21T02:05:24.133Z,84.82
2019-02-21T02:07:52.651Z,84.97
2019-02-21T02:10:21.249Z,85.19
2019-02-21T02:12:49.711Z,85.02
2019-02-21T02:15:18.381Z,85.06
2019-02-21T02:17:46.945Z,85.22
2019-02-21T02:20:15.428Z,85.22
2019-02-21T02:22:44.118Z,85.25
2019-02-21T02:25:12.632Z,85.25
2019-02-21T02:27:41.080Z,85.51
2019-02-21T02:30:10.758Z,85.51
2019-02-21T02:32:39.226Z,85.68
2019-02-21T02:35:08.035Z,86.37
2019-02-21T02:37:36.844Z,86.32
2019-02-21T02:40:06.375Z,86.61
2019-02-21T02:42:34.906Z,86.63
2019-02-21T02:45:03.515Z,86.80
2019-02-21T02:47:32.062Z,87.03
2019-02-21T02:50:00.617Z,87.15
2019-02-21T02:52:29.100Z,87.69
2019-02-21T02:54:57.553Z,88.50
2019-02-21T02:57:26.017Z,88.67
2019-02-21T02:59:54.688Z,88.63
2019-02-21T03:02:23.165Z,88.50
2019-02-21T03:04:51.683Z,88.50
2019-02-21T03:07:20.186Z,88.64
2019-02-21T03:09:48.732Z,88.50
2019-02-21T03:12:17.211Z,88.70
2019-02-21T03:14:45.705Z,88.07
2019-02-21T03:17:14.382Z,87.90
2019-02-21T03:19:42.875Z,87.84
2019-02-21T03:22:11.511Z,87.58
2019-02-21T03:24:40.029Z,87.57
2019-02-21T03:27:08.484Z,87.32
2019-02-21T03:29:37.059Z,87.52
2019-02-21T03:32:05.525Z,87.45
2019-02-21T03:34:33.982Z,87.41
2019-02-21T03:37:02.516Z,87.36
2019-02-21T03:39:31.043Z,87.42
2019-02-21T03:41:59.574Z,87.60
2019-02-21T03:44:28.110Z,87.26
2019-02-21T03:46:56.586Z,87.40
2019-02-21T03:49:25.143Z,87.66
2019-02-21T03:51:53.665Z,87.39
2019-02-21T03:54:22.204Z,87.08
2019-02-21T03:56:50.764Z,87.31
2019-02-21T03:59:19.480Z,86.87
2019-02-21T04:01:48.099Z,86.50
2019-02-21T04:04:16.654Z,86.16
2019-02-21T04:06:45.289Z,86.11
2019-02-21T04:09:13.765Z,85.82
2019-02-21T04:11:42.289Z,85.96
2019-02-21T04:14:10.963Z,85.88
2019-02-21T04:16:39.585Z,85.89
2019-02-21T04:19:08.170Z,85.78
2019-02-21T04:21:36.702Z,85.68
2019-02-21T04:24:05.390Z,85.82
2019-02-21T04:26:33.919Z,85.95
2019-02-21T04:29:02.452Z,85.93
2019-02-21T04:31:30.938Z,86.16
2019-02-21T04:33:59.388Z,86.20
2019-02-21T04:36:27.944Z,86.57
2019-02-21T04:38:56.482Z,86.73
2019-02-21T04:41:25.096Z,86.95
2019-02-21T04:43:53.573Z,86.86
2019-02-21T04:46:22.095Z,87.09
2019-02-21T04:48:50.605Z,87.22
2019-02-21T04:51:19.073Z,87.41
2019-02-21T04:53:48.233Z,88.24
2019-02-21T04:56:16.693Z,89.03
2019-02-21T04:58:45.172Z,88.94
2019-02-21T05:01:13.736Z,89.09
2019-02-21T05:03:42.188Z,88.71
2019-02-21T05:06:10.796Z,88.57
2019-02-21T05:08:39.293Z,88.62
2019-02-21T05:11:07.750Z,88.09
2019-02-21T05:13:36.235Z,87.99
2019-02-21T05:16:04.768Z,87.76
2019-02-21T05:18:33.397Z,87.88
2019-02-21T05:21:01.916Z,87.78
2019-02-21T05:23:30.393Z,87.82
2019-02-21T05:25:58.847Z,87.70
2019-02-21T05:28:29.644Z,87.78
2019-02-21T05:30:59.749Z,87.98
2019-02-21T05:33:35.988Z,87.92
2019-02-21T05:36:09.277Z,87.93
2019-02-21T05:38:42.450Z,87.91
2019-02-21T05:41:21.834Z,87.76
2019-02-21T05:44:08.486Z,87.72
2019-02-21T05:46:57.058Z,87.81
2019-02-21T05:49:29.907Z,87.66
2019-02-21T05:52:00.219Z,87.62
2019-02-21T05:54:30.321Z,87.62
2019-02-21T05:57:15.974Z,87.80
2019-02-21T05:59:57.903Z,88.03
2019-02-21T06:02:53.173Z,88.05
2019-02-21T06:05:16.290Z,87.96
2019-02-21T06:08:02.712Z,87.94
2019-02-21T06:10:38.718Z,88.01
2019-02-21T06:13:17.581Z,88.09
2019-02-21T06:15:47.750Z,88.33
2019-02-21T06:18:32.840Z,88.39
2019-02-21T06:21:08.659Z,88.70
2019-02-21T06:23:50.624Z,88.53
2019-02-21T06:26:23.823Z,88.63
2019-02-21T06:28:54.011Z,88.55
2019-02-21T06:31:22.556Z,89.75
2019-02-21T06:33:51.084Z,89.87
2019-02-21T06:36:19.577Z,90.04
2019-02-21T06:38:48.125Z,90.34
2019-02-21T06:41:16.588Z,90.33
2019-02-21T06:43:45.057Z,90.18
2019-02-21T06:46:13.993Z,90.35
2019-02-21T06:48:42.532Z,91.20
2019-02-21T06:51:11.150Z,91.38
2019-02-21T06:53:39.735Z,91.49
2019-02-21T06:56:08.382Z,90.82
2019-02-21T06:58:37.275Z,90.30
2019-02-21T07:01:05.758Z,90.44
2019-02-21T07:03:34.579Z,90.44
2019-02-21T07:06:03.088Z,90.17
2019-02-21T07:08:31.540Z,90.14
2019-02-21T07:11:06.323Z,90.20
2019-02-21T07:13:30.217Z,90.49
2019-02-21T07:15:58.749Z,90.58
2019-02-21T07:18:28.924Z,90.59
2019-02-21T07:20:57.673Z,90.46
2019-02-21T07:23:27.208Z,90.42
2019-02-21T07:25:57.080Z,90.64
2019-02-21T07:28:27.739Z,90.57
2019-02-21T07:30:55.825Z,90.70
2019-02-21T07:33:28.291Z,90.40
2019-02-21T07:35:54.937Z,90.24
2019-02-21T07:38:23.885Z,90.14
2019-02-21T07:40:52.423Z,90.49
2019-02-21T07:43:20.913Z,90.86
2019-02-21T07:45:49.380Z,90.96
2019-02-21T07:48:17.884Z,91.00
2019-02-21T07:50:46.406Z,90.69
2019-02-21T07:53:15.072Z,89.85
2019-02-21T07:55:43.703Z,88.90
2019-02-21T07:58:12.184Z,88.17
2019-02-21T08:00:40.705Z,87.57
2019-02-21T08:03:09.384Z,86.31
2019-02-21T08:05:37.984Z,84.78
2019-02-21T08:08:09.199Z,82.74
2019-02-21T08:10:36.904Z,82.17
2019-02-21T08:13:05.569Z,81.57
2019-02-21T08:15:34.110Z,81.40
2019-02-21T08:18:02.596Z,81.11
2019-02-21T08:20:35.508Z,81.02
2019-02-21T08:23:03.048Z,80.83
2019-02-21T08:25:31.952Z,80.60
2019-02-21T08:28:00.752Z,80.73
2019-02-21T08:30:29.666Z,80.56
2019-02-21T08:33:08.735Z,80.63
2019-02-21T08:35:37.372Z,80.62
2019-02-21T08:38:06.266Z,80.55
2019-02-21T08:40:34.790Z,80.46
2019-02-21T08:43:04.166Z,80.40
2019-02-21T08:45:33.091Z,80.29
2019-02-21T08:48:01.567Z,80.33
2019-02-21T08:50:30.181Z,80.11
2019-02-21T08:53:00.921Z,79.91
2019-02-21T08:55:28.960Z,79.86
2019-02-21T08:57:57.744Z,79.82
2019-02-21T09:00:26.371Z,79.64
2019-02-21T09:02:54.989Z,79.55
2019-02-21T09:05:23.903Z,79.32
2019-02-21T09:07:52.511Z,79.29
2019-02-21T09:10:21.072Z,79.04
2019-02-21T09:12:49.549Z,78.69
2019-02-21T09:15:18.058Z,78.35
2019-02-21T09:17:46.594Z,77.56
2019-02-21T09:20:15.853Z,77.11
2019-02-21T09:22:44.369Z,76.34
2019-02-21T09:25:13.984Z,76.41
2019-02-21T09:27:42.727Z,76.26
2019-02-21T09:30:18.730Z,76.38
2019-02-21T09:32:47.417Z,76.04
2019-02-21T09:35:15.974Z,75.77
2019-02-21T09:37:44.923Z,75.42
2019-02-21T09:40:14.856Z,75.32
2019-02-21T09:42:43.434Z,75.37
2019-02-21T09:45:19.158Z,75.21
2019-02-21T09:47:47.840Z,75.23
2019-02-21T09:50:16.323Z,75.10
2019-02-21T09:52:44.902Z,74.50
2019-02-21T09:55:18.167Z,74.44
2019-02-21T09:57:46.818Z,74.44
2019-02-21T10:00:19.774Z,73.28
2019-02-21T10:02:48.292Z,73.10
2019-02-21T10:05:17.023Z,73.19
2019-02-21T10:07:45.481Z,73.09
2019-02-21T10:10:15.801Z,72.86
2019-02-21T10:12:44.427Z,73.17
2019-02-21T10:15:16.879Z,73.33
2019-02-21T10:17:45.467Z,73.66
2019-02-21T10:20:17.067Z,73.76
2019-02-21T10:22:45.597Z,73.70
2019-02-21T10:25:22.943Z,73.61
2019-02-21T10:27:50.575Z,73.83
2019-02-21T10:30:21.002Z,72.95
2019-02-21T10:32:49.590Z,72.17
2019-02-21T10:35:18.268Z,71.42
2019-02-21T10:37:46.902Z,70.93
2019-02-21T10:40:16.393Z,69.61
2019-02-21T10:42:44.944Z,69.67
2019-02-21T10:45:15.419Z,69.19
2019-02-21T10:47:44.082Z,69.57
2019-02-21T10:50:15.597Z,69.06
2019-02-21T10:52:44.250Z,69.52
2019-02-21T10:55:13.486Z,68.20
2019-02-21T10:57:42.257Z,67.40
2019-02-21T11:00:17.073Z,67.43
2019-02-21T11:02:45.893Z,65.55
2019-02-21T11:05:14.504Z,64.64
2019-02-21T11:07:42.991Z,64.57
2019-02-21T11:10:13.819Z,64.35
2019-02-21T11:12:42.411Z,65.06
2019-02-21T11:15:13.516Z,64.95
2019-02-21T11:17:42.005Z,64.72
2019-02-21T11:20:13.172Z,64.83
2019-02-21T11:22:41.682Z,64.81
2019-02-21T11:25:11.827Z,64.95
2019-02-21T11:27:40.563Z,65.23
2019-02-21T11:30:17.610Z,65.38
2019-02-21T11:32:46.344Z,65.35
2019-02-21T11:35:15.299Z,65.29
2019-02-21T11:37:46.815Z,65.20
2019-02-21T11:40:18.134Z,64.65
2019-02-21T11:42:47.417Z,64.38
2019-02-21T11:45:17.516Z,64.05
2019-02-21T11:47:46.129Z,64.23
2019-02-21T11:50:16.625Z,64.46
2019-02-21T11:52:45.437Z,64.20
2019-02-21T11:55:16.964Z,63.97
2019-02-21T11:57:45.729Z,63.64
2019-02-21T12:00:20.281Z,63.97
2019-02-21T12:02:48.881Z,63.76
2019-02-21T12:05:27.888Z,62.85
2019-02-21T12:07:48.107Z,61.97
2019-02-21T12:10:17.200Z,61.33
2019-02-21T12:12:46.206Z,60.59
2019-02-21T12:15:16.010Z,60.02
2019-02-21T12:17:44.557Z,59.14
2019-02-21T12:20:17.877Z,59.13
2019-02-21T12:22:46.430Z,59.00
2019-02-21T12:25:20.932Z,58.87
2019-02-21T12:27:49.385Z,58.65
2019-02-21T12:30:21.718Z,59.07
2019-02-21T12:32:50.248Z,59.11
2019-02-21T12:35:29.290Z,58.71
2019-02-21T12:37:49.369Z,58.71
2019-02-21T12:40:20.413Z,58.85
2019-02-21T12:42:49.024Z,58.64
2019-02-21T12:45:22.317Z,58.38
2019-02-21T12:47:53.763Z,58.17
2019-02-21T12:50:21.475Z,58.13
2019-02-21T12:52:50.126Z,58.39
2019-02-21T12:55:27.266Z,59.04
2019-02-21T12:57:48.924Z,58.99
2019-02-21T13:00:22.388Z,58.99
2019-02-21T13:02:50.858Z,58.83
2019-02-21T13:05:19.471Z,59.00
2019-02-21T13:07:47.963Z,59.29
2019-02-21T13:10:18.652Z,59.02
2019-02-21T13:12:47.311Z,59.02
2019-02-21T13:15:16.302Z,59.14
2019-02-21T13:17:44.931Z,59.32
2019-02-21T13:20:14.721Z,59.38
2019-02-21T13:22:43.287Z,59.76
2019-02-21T13:25:14.503Z,59.95
2019-02-21T13:27:46.089Z,60.15
2019-02-21T13:30:16.738Z,60.00
2019-02-21T13:32:45.314Z,60.51
2019-02-21T13:35:14.301Z,60.55
2019-02-21T13:37:42.954Z,60.87
2019-02-21T13:40:15.863Z,61.31
2019-02-21T13:42:44.593Z,61.36
2019-02-21T13:45:17.566Z,61.44
2019-02-21T13:47:45.334Z,61.32
2019-02-21T13:50:18.694Z,61.54
2019-02-21T13:52:47.363Z,61.39
2019-02-21T13:55:15.928Z,61.65
2019-02-21T13:57:44.427Z,61.67
2019-02-21T14:00:24.088Z,61.45
2019-02-21T14:02:52.641Z,61.24
2019-02-21T14:05:21.134Z,61.15
2019-02-21T14:07:49.597Z,61.35
2019-02-21T14:10:18.415Z,61.45
2019-02-21T14:12:46.898Z,61.30
2019-02-21T14:15:24.761Z,61.50
2019-02-21T14:17:53.350Z,61.91
2019-02-21T14:20:22.062Z,61.41
2019-02-21T14:22:50.654Z,61.21
2019-02-21T14:25:19.178Z,60.58
2019-02-21T14:27:47.695Z,60.41
2019-02-21T14:30:18.364Z,60.25
2019-02-21T14:32:46.913Z,59.95
2019-02-21T14:35:16.616Z,59.71
2019-02-21T14:37:45.089Z,59.29
2019-02-21T14:40:17.610Z,59.18
2019-02-21T14:42:46.175Z,59.33
2019-02-21T14:45:19.802Z,59.24
2019-02-21T14:47:48.397Z,59.28
2019-02-21T14:50:17.331Z,59.57
2019-02-21T14:52:46.124Z,59.81
2019-02-21T14:55:17.654Z,59.74
2019-02-21T14:57:46.258Z,60.22
2019-02-21T15:00:22.772Z,60.29
2019-02-21T15:02:51.574Z,60.45
2019-02-21T15:05:20.630Z,60.49
2019-02-21T15:07:49.163Z,61.03
2019-02-21T15:10:18.002Z,61.17
2019-02-21T15:12:46.737Z,61.40
2019-02-21T15:15:17.570Z,62.04
2019-02-21T15:17:46.164Z,62.43
2019-02-21T15:20:16.326Z,62.74
2019-02-21T15:22:44.913Z,63.00
2019-02-21T15:25:13.672Z,63.02
2019-02-21T15:27:42.308Z,63.24
2019-02-21T15:30:16.647Z,63.49
2019-02-21T15:32:45.238Z,63.52
2019-02-21T15:35:14.126Z,63.71
2019-02-21T15:37:44.881Z,63.73
2019-02-21T15:40:13.497Z,63.84
2019-02-21T15:42:42.109Z,64.04
2019-02-21T15:45:23.617Z,64.04
2019-02-21T15:47:50.169Z,64.32
2019-02-21T15:50:19.874Z,64.48
2019-02-21T15:52:49.347Z,64.63
2019-02-21T15:55:19.538Z,64.67
2019-02-21T15:57:48.022Z,64.86
2019-02-21T16:00:18.909Z,65.01
2019-02-21T16:02:47.571Z,65.30
2019-02-21T16:05:16.264Z,65.52
2019-02-21T16:07:44.822Z,65.67
2019-02-21T16:10:16.153Z,65.71
2019-02-21T16:12:45.191Z,65.89
2019-02-21T16:15:16.356Z,66.09
2019-02-21T16:17:44.663Z,66.22
2019-02-21T16:20:17.570Z,66.43
2019-02-21T16:22:46.760Z,66.61
2019-02-21T16:25:17.822Z,66.50
2019-02-21T16:27:46.373Z,66.64
2019-02-21T16:30:15.520Z,66.71
2019-02-21T16:32:44.085Z,66.80
2019-02-21T16:35:14.182Z,66.95
2019-02-21T16:37:42.878Z,67.14
2019-02-21T16:40:13.690Z,67.28
2019-02-21T16:42:42.261Z,67.42
2019-02-21T16:45:12.982Z,67.67
2019-02-21T16:47:41.821Z,68.03
2019-02-21T16:50:12.643Z,68.30
2019-02-21T16:52:41.238Z,68.59
2019-02-21T16:55:15.612Z,68.60
2019-02-21T16:57:45.075Z,68.76
2019-02-21T17:00:20.838Z,69.16
2019-02-21T17:02:49.666Z,69.12
2019-02-21T17:05:18.315Z,69.38
2019-02-21T17:07:46.856Z,69.54
2019-02-21T17:10:18.197Z,69.87
2019-02-21T17:12:46.724Z,70.18
2019-02-21T17:15:19.082Z,70.26
2019-02-21T17:17:47.711Z,70.20
2019-02-21T17:20:18.047Z,70.20
2019-02-21T17:22:46.688Z,70.45
2019-02-21T17:25:16.134Z,70.49
2019-02-21T17:27:46.635Z,70.54
2019-02-21T17:30:16.725Z,70.54
2019-02-21T17:32:45.473Z,70.55
2019-02-21T17:35:14.708Z,70.57
2019-02-21T17:37:43.271Z,70.57
2019-02-21T17:40:17.083Z,70.56
2019-02-21T17:42:45.838Z,70.57
2019-02-21T17:45:14.594Z,71.46
2019-02-21T17:47:43.222Z,70.87
2019-02-21T17:50:14.173Z,70.82
2019-02-21T17:52:42.907Z,70.94
2019-02-21T17:55:12.704Z,71.06
2019-02-21T17:57:41.436Z,71.05
2019-02-21T18:00:25.567Z,71.04
2019-02-21T18:02:54.189Z,71.37
2019-02-21T18:05:22.904Z,71.37
2019-02-21T18:07:51.609Z,71.12
2019-02-21T18:10:20.633Z,71.25
2019-02-21T18:12:50.472Z,71.25
2019-02-21T18:15:19.484Z,71.33
2019-02-21T18:17:48.368Z,71.51
2019-02-21T18:20:17.095Z,71.51
2019-02-21T18:22:45.783Z,71.64
2019-02-21T18:25:26.936Z,71.74
2019-02-21T18:27:55.603Z,72.23
2019-02-21T18:30:24.235Z,72.90
2019-02-21T18:32:52.875Z,73.49
2019-02-21T18:35:21.539Z,73.91
2019-02-21T18:37:50.173Z,74.40
2019-02-21T18:40:21.467Z,74.74
2019-02-21T18:42:50.191Z,75.12
2019-02-21T18:45:18.903Z,75.42
2019-02-21T18:47:47.529Z,75.61
2019-02-21T18:50:16.342Z,76.11
2019-02-21T18:52:44.887Z,76.53
2019-02-21T18:55:13.664Z,76.67
2019-02-21T18:57:42.410Z,77.41
2019-02-21T19:00:20.156Z,78.02
2019-02-21T19:02:48.786Z,78.93
2019-02-21T19:05:17.465Z,79.86
2019-02-21T19:07:46.166Z,80.85
2019-02-21T19:10:19.674Z,81.73
2019-02-21T19:12:48.390Z,82.24
2019-02-21T19:15:18.986Z,82.81
2019-02-21T19:17:47.835Z,83.43
2019-02-21T19:20:18.009Z,83.79
2019-02-21T19:22:46.767Z,84.44
2019-02-21T19:25:15.598Z,84.73
2019-02-21T19:27:44.376Z,85.19
2019-02-21T19:30:28.209Z,85.48
2019-02-21T19:32:56.844Z,85.77
2019-02-21T19:35:25.710Z,86.00
2019-02-21T19:37:54.371Z,86.42
2019-02-21T19:40:24.821Z,86.85
2019-02-21T19:42:56.682Z,87.10
2019-02-21T19:45:26.992Z,87.37
2019-02-21T19:47:55.701Z,87.63
2019-02-21T19:50:24.788Z,87.80
2019-02-21T19:52:53.572Z,88.31
2019-02-21T19:55:22.259Z,88.46
2019-02-21T19:57:50.841Z,88.66
2019-02-21T20:00:25.944Z,88.99
2019-02-21T20:02:55.315Z,89.14
2019-02-21T20:05:24.221Z,89.06
2019-02-21T20:07:52.956Z,89.32
2019-02-21T20:10:21.712Z,89.51
2019-02-21T20:12:50.490Z,90.02
2019-02-21T20:15:19.780Z,90.13
2019-02-21T20:17:48.486Z,90.28
2019-02-21T20:20:19.753Z,90.43
2019-02-21T20:22:48.448Z,90.60
2019-02-21T20:25:17.179Z,90.38
2019-02-21T20:27:45.835Z,90.47
2019-02-21T20:30:18.748Z,90.69
2019-02-21T20:32:47.497Z,90.65
2019-02-21T20:35:16.125Z,90.66
2019-02-21T20:37:44.792Z,90.72
2019-02-21T20:40:13.687Z,90.59
2019-02-21T20:42:42.351Z,90.52
2019-02-21T20:45:15.023Z,91.01
2019-02-21T20:47:43.723Z,90.84
2019-02-21T20:50:14.022Z,91.04
2019-02-21T20:52:42.777Z,91.05
2019-02-21T20:55:12.419Z,91.15
2019-02-21T20:57:41.086Z,91.21
2019-02-21T21:00:15.633Z,91.45
2019-02-21T21:02:44.900Z,91.37
2019-02-21T21:05:19.822Z,91.55
2019-02-21T21:07:48.431Z,91.53
2019-02-21T21:10:17.743Z,91.56
2019-02-21T21:12:46.281Z,91.53
2019-02-21T21:15:15.453Z,91.75
2019-02-21T21:17:44.135Z,91.66
2019-02-21T21:20:17.106Z,91.77
2019-02-21T21:22:44.288Z,91.91
2019-02-21T21:25:15.970Z,91.76
2019-02-21T21:27:44.658Z,91.92
2019-02-21T21:30:15.802Z,91.91
2019-02-21T21:32:44.451Z,92.10
2019-02-21T21:35:13.050Z,91.76
2019-02-21T21:37:41.715Z,92.26
2019-02-21T21:40:17.799Z,92.46
2019-02-21T21:42:46.518Z,92.50
2019-02-21T21:45:17.421Z,92.79
2019-02-21T21:47:46.175Z,92.69
2019-02-21T21:50:17.728Z,92.61
2019-02-21T21:52:46.558Z,92.77
2019-02-21T21:55:15.279Z,93.05
2019-02-21T21:57:44.029Z,93.00
2019-02-21T22:00:18.257Z,92.95
2019-02-21T22:02:46.835Z,93.02
2019-02-21T22:05:15.517Z,93.09
2019-02-21T22:07:44.192Z,93.02
2019-02-21T22:10:13.701Z,92.87
2019-02-21T22:12:42.327Z,92.90
2019-02-21T22:15:22.376Z,92.93
2019-02-21T22:17:50.929Z,93.07
2019-02-21T22:20:19.507Z,93.06
2019-02-21T22:22:48.148Z,93.39
2019-02-21T22:25:16.738Z,93.43
2019-02-21T22:27:45.473Z,93.59
2019-02-21T22:30:20.772Z,93.51
2019-02-21T22:32:49.453Z,93.97
2019-02-21T22:35:18.041Z,93.91
2019-02-21T22:37:46.592Z,93.74
2019-02-21T22:40:20.043Z,93.65
2019-02-21T22:42:48.673Z,93.92
2019-02-21T22:45:17.260Z,93.86
2019-02-21T22:47:45.765Z,94.00
2019-02-21T22:50:16.057Z,93.79
2019-02-21T22:52:44.673Z,93.85
2019-02-21T22:55:13.444Z,94.28
2019-02-21T22:57:42.240Z,94.13
2019-02-21T23:00:36.657Z,94.17
2019-02-21T23:03:09.005Z,94.08
2019-02-21T23:06:02.961Z,94.07
2019-02-21T23:08:45.110Z,94.34
2019-02-21T23:11:13.754Z,94.32
2019-02-21T23:13:42.741Z,94.43
2019-02-21T23:16:11.431Z,94.25
2019-02-21T23:18:40.784Z,94.68
2019-02-21T23:21:09.487Z,94.58
2019-02-21T23:23:38.117Z,94.64
2019-02-21T23:26:06.649Z,94.48
2019-02-21T23:28:35.265Z,94.54
2019-02-21T23:31:03.941Z,94.42
2019-02-21T23:33:34.399Z,94.41
2019-02-21T23:36:03.070Z,94.62
2019-02-21T23:38:32.054Z,94.75
2019-02-21T23:41:00.527Z,94.55
2019-02-21T23:43:29.154Z,94.53
2019-02-21T23:45:58.045Z,94.63
2019-02-21T23:48:26.599Z,94.82
2019-02-21T23:50:55.208Z,94.68
2019-02-21T23:53:23.724Z,94.79
2019-02-21T23:55:52.263Z,94.71
2019-02-21T23:58:20.790Z,94.57
